Scottish Airport Reports

Civil airfields updated at H+20 and H+50
RAF airfields updated at H+50 only

EGPD - Aberdeen
Distance from station: NNE 19mi, 31km
Updated: 16/12/2017 23:50
Clear
Clear
 Wind from WSW
Wind: WSW 5 mph , 7 km/h
Temperature: 0°C
Wind Chill: -3°C
Dew Point: -3°C
Humidity: 80%
Barometer: 1018 hPa
Clouds: Clear
Visibility: 6 miles , 10 km
2017/12/16 23:50 EGPD 162350Z AUTO 25004KT 9999 NCD 00/M03 Q1018 NOSIG
EGPN - Dundee
Distance from station: SW 41mi, 66km
Updated: 16/12/2017 15:50
NOT Current
Clear
Clear
 Wind from W
Wind: W 7 mph , 11 km/h
Temperature: 1°C
Wind Chill: -2°C
Dew Point: -1°C
Humidity: 87%
Barometer: 1018 hPa
Summary: Clear
Visibility: greater than 7 miles , 10 km
2017/12/16 15:50 EGPN 161550Z 27006KT CAVOK 01/M01 Q1018
 
EGQS - RAF Lossiemouth
Distance from station: NNW 63mi, 102km
Updated: 16/12/2017 23:50
Clear
Clear
 Wind from S
Wind: S 9 mph , 15 km/h
Temperature: 0°C
Wind Chill: -4°C
Dew Point: -2°C
Humidity: 87%
Barometer: 1017 hPa
Summary: Clear
Visibility: greater than 7 miles , 10 km
2017/12/16 23:50 EGQS 162350Z 17008KT CAVOK M00/M02 Q1017 BLU
EGPE - Inverness
Distance from station: WNW 73mi, 117km
Updated: 16/12/2017 23:50
Clear
Clear
 Wind from W
Wind: W 6 mph , 9 km/h
Temperature: 0°C
Wind Chill: -3°C
Dew Point: -1°C
Humidity: 93%
Barometer: 1017 hPa
Clouds: Clear
Visibility: 6 miles , 10 km
2017/12/16 23:50 EGPE 162350Z AUTO 26005KT 9999 NCD 00/M01 Q1017
 
EGPH - Edinburgh
Distance from station: SSW 77mi, 125km
Updated: 16/12/2017 23:50
Clear
Clear
 Wind from W
Wind: W 5 mph , 7 km/h
Temperature: 0°C
Wind Chill: -3°C
Dew Point: -1°C
Humidity: 93%
Barometer: 1020 hPa
Summary: Clear
Visibility: greater than 7 miles , 10 km
2017/12/16 23:50 EGPH 162350Z 26004KT CAVOK M00/M01 Q1020
EGPC - Wick
Distance from station: NNW 107mi, 172km
Updated: 16/12/2017 23:50
Clear
Clear
 Wind from SSW
Wind: SSW 6 mph , 9 km/h
Temperature: 2°C
Wind Chill: -1°C
Dew Point: 1°C
Humidity: 93%
Barometer: 1016 hPa
Clouds: Clear
Visibility: 6 miles , 10 km
2017/12/16 23:50 EGPC 162350Z AUTO 21005KT 9999 NCD 02/01 Q1016
 
EGPF - Glasgow
Distance from station: SW 107mi, 172km
Updated: 16/12/2017 23:50
Mist, Overcast
Mist, Overcast
 Wind from varies
Wind: varies 1 mph , 2 km/h
Temperature: 0°C
Dew Point: -1°C
Humidity: 93%
Barometer: 1020 hPa
Summary: Mist
Clouds: Overcast
Visibility: 3 miles , 5 km
Cloud details: Mostly cloudy 3200 ft
Overcast 3900 ft
2017/12/16 23:50 EGPF 162350Z AUTO VRB01KT 5000 BR BKN032 OVC039 M00/M01 Q1020
EGPK - Prestwick
Distance from station: SW 130mi, 209km
Updated: 16/12/2017 23:50
Partly cloudy
Partly cloudy
 Wind from SE
Wind: SE 2 mph , 4 km/h
Temperature: 1°C
Dew Point: 0°C
Humidity: 93%
Barometer: 1020 hPa
Clouds: Partly cloudy
Visibility: 6 miles , 10 km
Cloud details: Few Clouds 2200 ft
Partly cloudy 3200 ft
2017/12/16 23:50 EGPK 162350Z 13002KT 9999 FEW022 SCT032 01/00 Q1020
 
EGPA - Kirkwall, Orkney
Distance from station: N 140mi, 225km
Updated: 16/12/2017 23:50
Clear
Clear
 Wind from S
Wind: S 8 mph , 13 km/h
Temperature: 2°C
Wind Chill: -1°C
Dew Point: 1°C
Humidity: 93%
Barometer: 1015 hPa
Clouds: Clear
Visibility: 6 miles , 10 km
2017/12/16 23:50 EGPA 162350Z AUTO 18007KT 9999 NCD 02/01 Q1015
EGPO - Stornoway, Outer Hebrides
Distance from station: WNW 169mi, 273km
Updated: 16/12/2017 23:50
Overcast
Overcast
 Wind from S
Wind: S 21 mph , 33 km/h
Temperature: 7°C
Wind Chill: 3°C
Dew Point: 7°C
Humidity: 100%
Barometer: 1013 hPa
Clouds: Overcast
Visibility: 6 miles , 10 km
Cloud details: Overcast 400 ft
2017/12/16 23:50 EGPO 162350Z AUTO 19018KT 9999 OVC004/// 07/07 Q1013
 
EGPI - Islay, Inner Hebrides
Distance from station: WSW 172mi, 276km
Updated: 16/12/2017 23:50
Light rain, Mostly cloudy
Light rain, Mostly cloudy
 Wind from S
Wind: S 7 mph , 11 km/h
Temperature: 7°C
Wind Chill: 5°C
Dew Point: 7°C
Humidity: 100%
Barometer: 1019 hPa
Summary: Light rain
Clouds: Mostly cloudy
Visibility: 6 miles , 10 km
Cloud details: Mostly cloudy 3100 ft
2017/12/16 23:50 EGPI 162350Z AUTO 18006KT 150V210 9999 -RA BKN031/// 07/07 Q1019
EGPU - Tiree, Inner Hebrides
Distance from station: W 172mi, 276km
Updated: 16/12/2017 23:50
Light rain, Few clouds
Light rain, Few clouds
 Wind from SSW
Wind: SSW 15 mph , 24 km/h
Temperature: 9°C
Wind Chill: 6°C
Dew Point: 8°C
Humidity: 94%
Barometer: 1016 hPa
Summary: Light rain
Clouds: Few Clouds
Visibility: 6 miles , 10 km
Cloud details: Few Clouds 2900 ft
2017/12/16 23:50 EGPU 162350Z AUTO 21013KT 180V240 9999 -RA FEW029/// 09/08 Q1016
 
EGPB - Sumburgh, Shetland
Distance from station: NNE 208mi, 332km
Updated: 16/12/2017 23:50
Few Clouds
Few Clouds
 Wind from SW
Wind: SW 7 mph , 11 km/h
Temperature: 3°C
Wind Chill: 0°C
Dew Point: -2°C
Humidity: 70%
Barometer: 1015 hPa
Clouds: Few Clouds
Visibility: 6 miles , 10 km
Cloud details: Few Clouds 3600 ft
2017/12/16 23:50 EGPB 162350Z AUTO 22006KT 9999 FEW036/// 03/M02 Q1015
EGPM - Scatsa, Shetland
Distance from station: NNE 245mi, 392km
Updated: 16/12/2017 23:50
Clear
Clear
 Wind from S
Wind: S 10 mph , 17 km/h
Temperature: 1°C
Wind Chill: -3°C
Dew Point: -2°C
Humidity: 81%
Barometer: 1014 hPa
Clouds: Clear
Visibility: 6 miles , 10 km
2017/12/16 23:50 EGPM 162350Z AUTO 17009KT 9999 NCD 01/M02 Q1014
-->